createdAt,value
2022-11-01T00:02:24.072Z,101443.47
2022-11-01T00:04:56.117Z,101428.25
2022-11-01T00:07:25.269Z,101426.31
2022-11-01T00:09:54.520Z,101422.75
2022-11-01T00:12:23.541Z,101414.78
2022-11-01T00:14:52.729Z,101405.72
2022-11-01T00:17:21.900Z,101403.16
2022-11-01T00:19:50.799Z,101392.84
2022-11-01T00:22:22.762Z,101391.78
2022-11-01T00:24:54.830Z,101391.03
2022-11-01T00:27:24.204Z,101380.00
2022-11-01T00:29:53.268Z,101365.41
2022-11-01T00:32:22.350Z,101372.03
2022-11-01T00:34:51.718Z,101372.53
2022-11-01T00:37:22.282Z,101367.00
2022-11-01T00:39:51.422Z,101374.75
2022-11-01T00:42:20.356Z,101358.44
2022-11-01T00:44:49.808Z,101363.72
2022-11-01T00:47:18.797Z,101362.13
2022-11-01T00:49:47.744Z,101359.31
2022-11-01T00:52:16.804Z,101360.28
2022-11-01T00:54:47.214Z,101357.47
2022-11-01T00:57:16.183Z,101344.47
2022-11-01T00:59:45.138Z,101353.91
2022-11-01T01:02:14.359Z,101351.09
2022-11-01T01:04:43.570Z,101350.09
2022-11-01T01:07:13.747Z,101353.06
2022-11-01T01:09:42.891Z,101353.81
2022-11-01T01:12:13.486Z,101344.72
2022-11-01T01:14:42.575Z,101350.97
2022-11-01T01:17:11.592Z,101343.75
2022-11-01T01:19:40.745Z,101344.13
2022-11-01T01:22:10.052Z,101337.88
2022-11-01T01:24:44.977Z,101337.38
2022-11-01T01:27:16.491Z,101336.78
2022-11-01T01:29:45.886Z,101336.16
2022-11-01T01:32:16.434Z,101331.03
2022-11-01T01:34:45.570Z,101316.06
2022-11-01T01:37:16.242Z,101304.19
2022-11-01T01:39:45.619Z,101296.34
2022-11-01T01:42:25.595Z,101296.00
2022-11-01T01:45:37.184Z,101288.41
2022-11-01T01:48:19.081Z,101300.56
2022-11-01T01:50:59.544Z,101288.91
2022-11-01T01:53:34.289Z,101289.03
2022-11-01T01:56:07.576Z,101291.09
2022-11-01T01:58:44.682Z,101294.53
2022-11-01T02:01:14.093Z,101296.50
2022-11-01T02:03:45.119Z,101293.94
2022-11-01T02:06:17.136Z,101290.63
2022-11-01T02:08:51.419Z,101284.25
2022-11-01T02:11:22.391Z,101285.22
2022-11-01T02:13:53.422Z,101284.88
2022-11-01T02:16:44.312Z,101276.19
2022-11-01T02:20:00.048Z,101279.84
2022-11-01T02:23:00.399Z,101264.66
2022-11-01T02:26:02.530Z,101259.03
2022-11-01T02:28:55.658Z,101254.38
2022-11-01T02:31:58.307Z,101239.41
2022-11-01T02:34:35.951Z,101240.91
2022-11-01T02:37:16.249Z,101254.63
2022-11-01T02:39:53.740Z,101255.38
2022-11-01T02:42:29.428Z,101254.63
2022-11-01T02:45:07.614Z,101247.41
2022-11-01T02:47:38.158Z,101231.84
2022-11-01T02:50:13.123Z,101237.50
2022-11-01T02:52:43.547Z,101227.19
2022-11-01T02:55:30.199Z,101231.13
2022-11-01T02:58:03.659Z,101208.22
2022-11-01T03:00:36.233Z,101201.69
2022-11-01T03:03:15.617Z,101192.28
2022-11-01T03:06:07.545Z,101176.84
2022-11-01T03:08:42.443Z,101170.38
2022-11-01T03:11:17.189Z,101171.94
2022-11-01T03:14:01.854Z,101169.50
2022-11-01T03:16:37.232Z,101174.91
2022-11-01T03:19:18.346Z,101163.00
2022-11-01T03:22:01.120Z,101167.16
2022-11-01T03:24:38.122Z,101171.56
2022-11-01T03:27:17.230Z,101168.88
2022-11-01T03:29:57.285Z,101175.50
2022-11-01T03:32:33.905Z,101180.63
2022-11-01T03:35:06.573Z,101174.00
2022-11-01T03:37:42.614Z,101174.72
2022-11-01T03:40:16.171Z,101175.72
2022-11-01T03:42:50.031Z,101176.44
2022-11-01T03:45:25.395Z,101171.06
2022-11-01T03:47:54.732Z,101165.97
2022-11-01T03:50:27.199Z,101156.06
2022-11-01T03:52:58.066Z,101153.00
2022-11-01T03:55:27.397Z,101145.03
2022-11-01T03:57:59.147Z,101150.44
2022-11-01T04:00:30.775Z,101150.16
2022-11-01T04:03:01.608Z,101152.84
2022-11-01T04:05:35.627Z,101144.75
2022-11-01T04:08:07.513Z,101141.22
2022-11-01T04:10:36.891Z,101135.69
2022-11-01T04:13:06.133Z,101138.28
2022-11-01T04:15:52.731Z,101136.44
2022-11-01T04:18:41.576Z,101137.16
2022-11-01T04:21:15.253Z,101129.66
2022-11-01T04:23:47.409Z,101121.31
2022-11-01T04:26:19.276Z,101103.03
2022-11-01T04:28:57.332Z,101105.72
2022-11-01T04:31:27.908Z,101110.66
2022-11-01T04:33:56.933Z,101100.75
2022-11-01T04:36:26.550Z,101085.88
2022-11-01T04:38:59.171Z,101086.28
2022-11-01T04:41:31.042Z,101075.09
2022-11-01T04:44:01.198Z,101074.50
2022-11-01T04:46:32.935Z,101059.31
2022-11-01T04:49:01.952Z,101059.44
2022-11-01T04:51:31.489Z,101064.56
2022-11-01T04:54:02.216Z,101065.53
2022-11-01T04:56:31.354Z,101049.25
2022-11-01T04:59:00.341Z,101043.72
2022-11-01T05:01:29.446Z,101044.13
2022-11-01T05:03:58.522Z,101030.25
2022-11-01T05:06:27.627Z,101035.34
2022-11-01T05:08:57.210Z,101027.56
2022-11-01T05:11:27.752Z,101031.22
2022-11-01T05:13:57.017Z,101017.03
2022-11-01T05:16:26.061Z,101006.41
2022-11-01T05:18:55.045Z,101006.25
2022-11-01T05:21:26.802Z,101014.06
2022-11-01T05:23:55.963Z,101007.56
2022-11-01T05:26:28.027Z,101014.25
2022-11-01T05:28:57.172Z,101017.81
2022-11-01T05:31:26.217Z,101025.06
2022-11-01T05:33:55.434Z,101026.59
2022-11-01T05:36:26.049Z,101025.50
2022-11-01T05:38:58.804Z,101032.31
2022-11-01T05:41:29.876Z,101023.81
2022-11-01T05:43:59.218Z,101026.66
2022-11-01T05:46:28.326Z,101019.44
2022-11-01T05:48:57.539Z,101010.19
2022-11-01T05:51:27.001Z,101003.69
2022-11-01T05:53:56.308Z,100995.31
2022-11-01T05:56:25.404Z,100985.25
2022-11-01T05:58:55.855Z,100979.00
2022-11-01T06:01:24.900Z,100984.41
2022-11-01T06:03:53.977Z,100981.84
2022-11-01T06:06:23.170Z,100995.75
2022-11-01T06:08:52.099Z,100988.81
2022-11-01T06:11:21.042Z,100996.59
2022-11-01T06:13:53.882Z,101010.81
2022-11-01T06:16:25.653Z,101012.25
2022-11-01T06:18:55.618Z,101018.84
2022-11-01T06:21:27.631Z,101009.06
2022-11-01T06:23:59.281Z,100992.47
2022-11-01T06:26:28.268Z,100993.06
2022-11-01T06:28:58.598Z,100977.69
2022-11-01T06:31:29.090Z,100983.25
2022-11-01T06:33:58.549Z,100987.66
2022-11-01T06:36:27.822Z,100988.78
2022-11-01T06:38:56.808Z,100994.47
2022-11-01T06:41:25.868Z,101003.72
2022-11-01T06:43:55.028Z,100998.47
2022-11-01T06:46:23.962Z,101006.25
2022-11-01T06:48:54.601Z,101004.16
2022-11-01T06:51:24.120Z,101003.00
2022-11-01T06:53:53.322Z,101004.47
2022-11-01T06:56:22.401Z,100990.97
2022-11-01T06:58:52.117Z,100989.97
2022-11-01T07:01:22.504Z,100989.13
2022-11-01T07:03:54.249Z,100980.84
2022-11-01T07:06:24.455Z,100977.72
2022-11-01T07:08:53.528Z,100973.78
2022-11-01T07:11:24.380Z,100977.59
2022-11-01T07:13:56.837Z,100973.91
2022-11-01T07:16:25.815Z,100980.16
2022-11-01T07:18:56.738Z,100987.25
2022-11-01T07:21:26.381Z,100985.97
2022-11-01T07:23:55.599Z,100991.09
2022-11-01T07:26:24.705Z,100991.94
2022-11-01T07:28:53.816Z,100992.53
2022-11-01T07:31:22.960Z,100982.84
2022-11-01T07:33:51.984Z,100992.38
2022-11-01T07:36:22.403Z,100986.25
2022-11-01T07:38:51.705Z,100975.16
2022-11-01T07:41:20.607Z,100975.03
2022-11-01T07:43:50.994Z,100976.44
2022-11-01T07:46:20.046Z,100978.28
2022-11-01T07:48:51.207Z,100984.13
2022-11-01T07:51:21.898Z,100982.25
2022-11-01T07:53:51.226Z,100985.69
2022-11-01T07:56:22.854Z,100983.28
2022-11-01T07:58:52.020Z,100984.25
2022-11-01T08:01:21.164Z,100975.59
2022-11-01T08:03:50.169Z,100988.22
2022-11-01T08:06:19.455Z,100988.53
2022-11-01T08:08:50.017Z,100989.97
2022-11-01T08:11:19.166Z,100987.25
2022-11-01T08:13:48.278Z,100968.06
2022-11-01T08:16:18.481Z,100971.75
2022-11-01T08:18:47.501Z,100970.03
2022-11-01T08:21:19.050Z,100960.09
2022-11-01T08:23:49.661Z,100957.81
2022-11-01T08:26:18.689Z,100952.41
2022-11-01T08:28:47.647Z,100950.13
2022-11-01T08:31:16.801Z,100961.50
2022-11-01T08:33:45.796Z,100957.06
2022-11-01T08:36:15.530Z,100968.59
2022-11-01T08:38:44.727Z,100960.19
2022-11-01T08:41:15.258Z,100970.19
2022-11-01T08:43:44.345Z,100961.53
2022-11-01T08:46:13.785Z,100968.06
2022-11-01T08:48:42.774Z,100968.06
2022-11-01T08:51:12.379Z,100960.09
2022-11-01T08:53:41.651Z,100959.25
2022-11-01T08:56:10.647Z,100954.81
2022-11-01T08:58:41.161Z,100956.84
2022-11-01T09:01:10.288Z,100954.69
2022-11-01T09:03:39.469Z,100939.72
2022-11-01T09:06:08.953Z,100954.38
2022-11-01T09:08:38.333Z,100946.69
2022-11-01T09:11:07.783Z,100956.06
2022-11-01T09:13:38.490Z,100965.09
2022-11-01T09:16:10.056Z,100961.41
2022-11-01T09:18:39.496Z,100952.25
2022-11-01T09:21:08.605Z,100961.41
2022-11-01T09:23:38.900Z,100961.25
2022-11-01T09:26:11.477Z,100945.06
2022-11-01T09:28:40.807Z,100947.56
2022-11-01T09:31:21.989Z,100949.59
2022-11-01T09:33:51.271Z,100966.19
2022-11-01T09:36:21.460Z,100958.25
2022-11-01T09:38:50.613Z,100946.59
2022-11-01T09:41:33.692Z,100944.91
2022-11-01T09:44:08.380Z,100935.00
2022-11-01T09:46:48.312Z,100936.16
2022-11-01T09:49:24.577Z,100932.16
2022-11-01T09:51:53.778Z,100928.75
2022-11-01T09:54:26.437Z,100915.03
2022-11-01T09:57:13.738Z,100918.06
2022-11-01T09:59:59.730Z,100912.06
2022-11-01T10:03:23.708Z,100924.94
2022-11-01T10:06:05.530Z,100926.09
2022-11-01T10:08:54.530Z,100921.41
2022-11-01T10:11:45.368Z,100926.56
2022-11-01T10:14:35.991Z,100933.75
2022-11-01T10:17:15.473Z,100932.81
2022-11-01T10:19:50.751Z,100938.31
2022-11-01T10:22:33.689Z,100937.16
2022-11-01T10:25:10.368Z,100942.91
2022-11-01T10:28:04.935Z,100937.03
2022-11-01T10:30:41.367Z,100938.22
2022-11-01T10:33:30.925Z,100931.56
2022-11-01T10:36:05.776Z,100937.91
2022-11-01T10:39:16.585Z,100932.16
2022-11-01T10:41:39.291Z,100938.53
2022-11-01T10:44:17.876Z,100941.53
2022-11-01T10:46:52.878Z,100930.91
2022-11-01T10:49:40.511Z,100940.50
2022-11-01T10:52:25.939Z,100941.09
2022-11-01T10:54:58.844Z,100948.22
2022-11-01T10:57:39.197Z,100944.06
2022-11-01T11:00:18.051Z,100946.19
2022-11-01T11:02:51.315Z,100945.34
2022-11-01T11:05:25.023Z,100947.84
2022-11-01T11:07:57.944Z,100938.44
2022-11-01T11:10:30.778Z,100950.91
2022-11-01T11:13:06.019Z,100951.66
2022-11-01T11:15:46.002Z,100950.34
2022-11-01T11:18:26.541Z,100943.59
2022-11-01T11:21:00.897Z,100945.34
2022-11-01T11:23:34.897Z,100941.44
2022-11-01T11:26:06.422Z,100933.69
2022-11-01T11:28:46.360Z,100926.28
2022-11-01T11:31:22.820Z,100916.03
2022-11-01T11:33:56.221Z,100912.19
2022-11-01T11:36:36.831Z,100911.31
2022-11-01T11:39:08.590Z,100913.38
2022-11-01T11:41:39.406Z,100911.09
2022-11-01T11:44:42.268Z,100924.97
2022-11-01T11:47:24.681Z,100921.13
2022-11-01T11:49:56.778Z,100930.97
2022-11-01T11:52:37.780Z,100930.13
2022-11-01T11:55:31.480Z,100925.47
2022-11-01T11:58:00.900Z,100930.09
2022-11-01T12:00:33.072Z,100929.00
2022-11-01T12:03:09.109Z,100933.38
2022-11-01T12:05:39.280Z,100942.56
2022-11-01T12:08:26.271Z,100940.13
2022-11-01T12:11:01.511Z,100935.88
2022-11-01T12:13:37.950Z,100944.66
2022-11-01T12:16:25.728Z,100959.13
2022-11-01T12:18:58.160Z,100946.22
2022-11-01T12:21:31.572Z,100948.28
2022-11-01T12:24:07.819Z,100951.31
2022-11-01T12:26:39.984Z,100950.66
2022-11-01T12:29:24.743Z,100957.75
2022-11-01T12:31:58.889Z,100951.19
2022-11-01T12:34:39.731Z,100944.00
2022-11-01T12:37:20.294Z,100943.22
2022-11-01T12:39:58.104Z,100935.94
2022-11-01T12:42:36.088Z,100925.91
2022-11-01T12:45:13.669Z,100932.16
2022-11-01T12:47:49.958Z,100935.59
2022-11-01T12:50:25.751Z,100930.53
2022-11-01T12:53:03.108Z,100927.97
2022-11-01T12:55:36.856Z,100937.19
2022-11-01T12:58:15.841Z,100946.78
2022-11-01T13:01:06.496Z,100954.22
2022-11-01T13:03:49.864Z,100951.13
2022-11-01T13:06:44.310Z,100947.94
2022-11-01T13:09:24.204Z,100952.22
2022-11-01T13:12:08.259Z,100972.91
2022-11-01T13:14:58.758Z,100971.31
2022-11-01T13:17:40.033Z,100973.59
2022-11-01T13:20:30.737Z,100968.09
2022-11-01T13:23:17.500Z,100971.66
2022-11-01T13:25:55.756Z,100961.31
2022-11-01T13:29:04.739Z,100976.66
2022-11-01T13:31:49.501Z,100972.06
2022-11-01T13:34:36.277Z,100976.75
2022-11-01T13:37:18.615Z,100984.97
2022-11-01T13:40:15.877Z,100994.81
2022-11-01T13:42:54.854Z,100994.88
2022-11-01T13:46:17.118Z,101001.22
2022-11-01T13:49:20.891Z,101000.41
2022-11-01T13:51:58.353Z,101021.00
2022-11-01T13:54:33.585Z,101009.28
2022-11-01T13:57:14.006Z,101008.75
2022-11-01T13:59:55.688Z,101027.59
2022-11-01T14:02:58.217Z,101009.09
2022-11-01T14:05:46.578Z,101001.06
2022-11-01T14:08:29.676Z,101017.38
2022-11-01T14:10:58.902Z,101022.44
2022-11-01T14:13:40.413Z,101030.34
2022-11-01T14:16:28.371Z,101017.91
2022-11-01T14:19:21.451Z,101045.06
2022-11-01T14:22:00.608Z,101052.34
2022-11-01T14:24:35.459Z,101049.88
2022-11-01T14:27:25.667Z,101053.75
2022-11-01T14:29:56.335Z,101047.84
2022-11-01T14:32:31.059Z,101053.34
2022-11-01T14:35:17.539Z,101052.16
2022-11-01T14:37:57.547Z,101058.19
2022-11-01T14:40:39.159Z,101064.28
2022-11-01T14:43:19.887Z,101070.91
2022-11-01T14:45:56.126Z,101080.66
2022-11-01T14:48:32.295Z,101080.41
2022-11-01T14:51:10.894Z,101097.00
2022-11-01T14:53:41.794Z,101091.59
2022-11-01T14:56:19.806Z,101103.44
2022-11-01T14:58:49.413Z,101103.94
2022-11-01T15:01:23.612Z,101108.94
2022-11-01T15:03:56.865Z,101113.94
2022-11-01T15:06:29.291Z,101108.81
2022-11-01T15:09:03.154Z,101108.13
2022-11-01T15:11:35.825Z,101118.53
2022-11-01T15:14:10.317Z,101117.41
2022-11-01T15:16:44.463Z,101123.53
2022-11-01T15:19:23.236Z,101136.16
2022-11-01T15:21:52.375Z,101147.91
2022-11-01T15:24:27.347Z,101138.81
2022-11-01T15:26:56.498Z,101138.94
2022-11-01T15:29:26.301Z,101142.63
2022-11-01T15:32:00.599Z,101142.16
2022-11-01T15:34:32.176Z,101144.28
2022-11-01T15:37:12.559Z,101147.63
2022-11-01T15:39:43.146Z,101141.06
2022-11-01T15:42:17.002Z,101136.03
2022-11-01T15:44:46.446Z,101134.97
2022-11-01T15:47:22.883Z,101137.88
2022-11-01T15:49:58.080Z,101145.31
2022-11-01T15:52:32.073Z,101152.81
2022-11-01T15:55:13.147Z,101154.91
2022-11-01T15:57:48.625Z,101161.72
2022-11-01T16:00:22.426Z,101164.34
2022-11-01T16:03:01.938Z,101165.94
2022-11-01T16:05:36.654Z,101169.00
2022-11-01T16:08:10.625Z,101184.88
2022-11-01T16:10:46.035Z,101190.25
2022-11-01T16:13:20.056Z,101195.56
2022-11-01T16:16:06.427Z,101199.28
2022-11-01T16:18:41.855Z,101202.84
2022-11-01T16:21:30.110Z,101212.63
2022-11-01T16:24:14.156Z,101208.59
2022-11-01T16:27:00.415Z,101205.28
2022-11-01T16:29:51.565Z,101206.00
2022-11-01T16:32:26.335Z,101211.16
2022-11-01T16:34:56.622Z,101215.91
2022-11-01T16:37:27.731Z,101212.50
2022-11-01T16:39:58.060Z,101217.16
2022-11-01T16:42:29.678Z,101220.81
2022-11-01T16:44:59.478Z,101229.75
2022-11-01T16:47:28.751Z,101239.03
2022-11-01T16:49:57.815Z,101236.06
2022-11-01T16:52:26.883Z,101233.97
2022-11-01T16:54:55.911Z,101232.97
2022-11-01T16:57:30.277Z,101237.53
2022-11-01T16:59:59.261Z,101242.59
2022-11-01T17:02:31.654Z,101243.91
2022-11-01T17:05:21.130Z,101244.78
2022-11-01T17:07:50.289Z,101250.88
2022-11-01T17:10:23.520Z,101245.69
2022-11-01T17:12:57.861Z,101251.50
2022-11-01T17:15:29.393Z,101249.34
2022-11-01T17:17:58.683Z,101260.81
2022-11-01T17:20:30.035Z,101267.34
2022-11-01T17:23:00.359Z,101267.09
2022-11-01T17:25:32.644Z,101271.00
2022-11-01T17:28:03.354Z,101261.44
2022-11-01T17:30:32.784Z,101267.59
2022-11-01T17:33:01.881Z,101277.25
2022-11-01T17:35:30.876Z,101273.84
2022-11-01T17:38:00.175Z,101288.44
2022-11-01T17:40:30.035Z,101297.03
2022-11-01T17:42:59.171Z,101289.00
2022-11-01T17:45:29.867Z,101294.56
2022-11-01T17:47:59.385Z,101294.16
2022-11-01T17:50:28.370Z,101295.88
2022-11-01T17:52:57.378Z,101296.50
2022-11-01T17:55:26.486Z,101301.28
2022-11-01T17:57:55.668Z,101298.78
2022-11-01T18:00:24.641Z,101305.84
2022-11-01T18:02:55.083Z,101303.88
2022-11-01T18:05:24.951Z,101308.56
2022-11-01T18:07:57.157Z,101310.56
2022-11-01T18:10:38.134Z,101316.19
2022-11-01T18:13:34.193Z,101317.34
2022-11-01T18:16:09.978Z,101328.63
2022-11-01T18:19:17.395Z,101329.28
2022-11-01T18:21:59.059Z,101313.31
2022-11-01T18:24:36.904Z,101320.59
2022-11-01T18:27:11.938Z,101312.56
2022-11-01T18:29:47.421Z,101314.00
2022-11-01T18:32:25.394Z,101312.09
2022-11-01T18:35:06.832Z,101308.34
2022-11-01T18:37:48.804Z,101318.38
2022-11-01T18:40:25.947Z,101311.97
2022-11-01T18:42:56.969Z,101312.63
2022-11-01T18:45:33.923Z,101309.88
2022-11-01T18:48:22.568Z,101313.47
2022-11-01T18:51:03.860Z,101309.88
2022-11-01T18:53:35.366Z,101303.47
2022-11-01T18:56:21.638Z,101305.34
2022-11-01T18:58:52.557Z,101302.38
2022-11-01T19:01:24.581Z,101302.75
2022-11-01T19:04:03.298Z,101293.53
2022-11-01T19:06:34.686Z,101296.22
2022-11-01T19:09:21.758Z,101292.00
2022-11-01T19:11:58.745Z,101286.97
2022-11-01T19:14:28.911Z,101288.09
2022-11-01T19:16:59.048Z,101287.34
2022-11-01T19:19:28.143Z,101301.72
2022-11-01T19:22:05.057Z,101299.38
2022-11-01T19:24:38.958Z,101297.00
2022-11-01T19:27:28.611Z,101286.91
2022-11-01T19:30:00.787Z,101293.97
2022-11-01T19:32:30.451Z,101294.72
2022-11-01T19:35:01.421Z,101300.00
2022-11-01T19:37:36.535Z,101297.66
2022-11-01T19:40:27.401Z,101300.13
2022-11-01T19:42:58.752Z,101301.44
2022-11-01T19:45:34.180Z,101304.94
2022-11-01T19:48:06.083Z,101301.94
2022-11-01T19:50:42.792Z,101310.19
2022-11-01T19:53:23.982Z,101298.38
2022-11-01T19:56:00.683Z,101299.00
2022-11-01T19:58:42.154Z,101298.91
2022-11-01T20:01:41.036Z,101294.50
2022-11-01T20:04:26.951Z,101286.63
2022-11-01T20:07:03.682Z,101284.41
2022-11-01T20:09:39.034Z,101288.22
2022-11-01T20:12:09.729Z,101290.44
2022-11-01T20:14:39.205Z,101289.47
2022-11-01T20:17:08.306Z,101294.41
2022-11-01T20:19:37.548Z,101299.81
2022-11-01T20:22:07.102Z,101295.31
2022-11-01T20:24:37.453Z,101299.56
2022-11-01T20:27:06.407Z,101297.69
2022-11-01T20:29:35.547Z,101298.09
2022-11-01T20:32:04.841Z,101302.09
2022-11-01T20:34:33.939Z,101302.44
2022-11-01T20:39:54.216Z,101293.81
2022-11-01T20:42:24.594Z,101296.44
2022-11-01T20:44:53.583Z,101297.94
2022-11-01T20:47:22.792Z,101292.50
2022-11-01T20:49:51.863Z,101301.75
2022-11-01T20:55:14.219Z,101301.63
2022-11-01T20:57:43.705Z,101310.00
2022-11-01T21:00:14.697Z,101304.50
2022-11-01T21:02:44.556Z,101310.72
2022-11-01T21:05:24.064Z,101310.00
2022-11-01T21:08:02.362Z,101308.44
2022-11-01T21:10:36.176Z,101312.50
2022-11-01T21:13:21.579Z,101307.63
2022-11-01T21:15:52.052Z,101313.88
2022-11-01T21:18:48.294Z,101305.03
2022-11-01T21:21:45.475Z,101307.59
2022-11-01T21:24:34.730Z,101304.63
2022-11-01T21:30:21.788Z,101301.50
2022-11-01T21:32:52.893Z,101299.88
2022-11-01T21:35:41.302Z,101308.63
2022-11-01T21:38:39.259Z,101302.09
2022-11-01T21:41:34.488Z,101306.84
2022-11-01T21:44:23.199Z,101304.94
2022-11-01T21:46:55.314Z,101308.50
2022-11-01T21:49:30.788Z,101303.47
2022-11-01T21:52:01.810Z,101308.41
2022-11-01T21:54:34.106Z,101301.69
2022-11-01T21:57:05.165Z,101308.63
2022-11-01T21:59:39.437Z,101300.50
2022-11-01T22:02:12.476Z,101300.22
2022-11-01T22:04:42.112Z,101302.09
2022-11-01T22:07:12.448Z,101300.72
2022-11-01T22:09:41.796Z,101300.72
2022-11-01T22:12:11.232Z,101298.22
2022-11-01T22:14:41.673Z,101289.84
2022-11-01T22:17:10.735Z,101289.31
2022-11-01T22:19:39.784Z,101292.25
2022-11-01T22:22:08.856Z,101295.78
2022-11-01T22:24:38.021Z,101289.22
2022-11-01T22:27:06.888Z,101289.56
2022-11-01T22:29:36.024Z,101294.41
2022-11-01T22:32:06.746Z,101275.63
2022-11-01T22:34:35.866Z,101281.09
2022-11-01T22:37:13.705Z,101278.06
2022-11-01T22:39:43.521Z,101278.91
2022-11-01T22:42:18.325Z,101272.91
2022-11-01T22:44:51.457Z,101275.84
2022-11-01T22:47:28.690Z,101283.78
2022-11-01T22:50:04.037Z,101270.81
2022-11-01T22:52:36.844Z,101277.13
2022-11-01T22:55:22.605Z,101277.25
2022-11-01T22:57:56.362Z,101281.34
2022-11-01T23:00:31.924Z,101276.00
2022-11-01T23:03:16.208Z,101283.38
2022-11-01T23:05:45.259Z,101266.75
2022-11-01T23:08:25.058Z,101275.34
2022-11-01T23:10:54.989Z,101276.81
2022-11-01T23:13:45.724Z,101268.03
2022-11-01T23:16:26.473Z,101270.28
2022-11-01T23:19:02.129Z,101264.16
2022-11-01T23:21:31.528Z,101263.53
2022-11-01T23:24:01.961Z,101264.72
2022-11-01T23:26:32.736Z,101268.03
2022-11-01T23:29:03.452Z,101268.81
2022-11-01T23:31:32.742Z,101266.72
2022-11-01T23:34:03.234Z,101265.44
2022-11-01T23:36:37.665Z,101266.56
2022-11-01T23:39:12.309Z,101269.78
2022-11-01T23:41:44.531Z,101263.09
2022-11-01T23:44:27.067Z,101257.75
2022-11-01T23:47:02.159Z,101251.72
2022-11-01T23:49:36.008Z,101254.97
2022-11-01T23:52:21.493Z,101250.75
2022-11-01T23:54:50.451Z,101247.44
2022-11-01T23:57:22.953Z,101259.47
2022-11-01T23:59:53.900Z,101260.09
